sensor_id;sensor_type;location;lat;lon;timestamp;temperature;humidity
7194;DHT22;3638;48.820;9.244;2023-04-10T00:01:28;6.00;99.90
7194;DHT22;3638;48.820;9.244;2023-04-10T00:03:59;6.00;99.90
7194;DHT22;3638;48.820;9.244;2023-04-10T00:06:28;6.10;99.90
7194;DHT22;3638;48.820;9.244;2023-04-10T00:08:56;6.10;99.90
7194;DHT22;3638;48.820;9.244;2023-04-10T00:11:23;6.00;99.90
7194;DHT22;3638;48.820;9.244;2023-04-10T00:13:50;6.00;99.90
7194;DHT22;3638;48.820;9.244;2023-04-10T00:16:18;6.20;99.90
7194;DHT22;3638;48.820;9.244;2023-04-10T00:18:45;6.20;99.90
7194;DHT22;3638;48.820;9.244;2023-04-10T00:21:12;6.30;99.90
7194;DHT22;3638;48.820;9.244;2023-04-10T00:23:40;6.30;99.90
7194;DHT22;3638;48.820;9.244;2023-04-10T00:26:07;6.30;99.90
7194;DHT22;3638;48.820;9.244;2023-04-10T00:28:34;6.30;99.90
7194;DHT22;3638;48.820;9.244;2023-04-10T00:31:02;6.10;99.90
7194;DHT22;3638;48.820;9.244;2023-04-10T00:33:29;6.00;99.90
7194;DHT22;3638;48.820;9.244;2023-04-10T00:35:56;6.00;99.90
7194;DHT22;3638;48.820;9.244;2023-04-10T00:38:23;5.90;99.90
7194;DHT22;3638;48.820;9.244;2023-04-10T00:40:51;6.00;99.90
7194;DHT22;3638;48.820;9.244;2023-04-10T00:43:18;5.90;99.90
7194;DHT22;3638;48.820;9.244;2023-04-10T00:45:45;5.80;99.90
7194;DHT22;3638;48.820;9.244;2023-04-10T00:48:13;5.80;99.90
7194;DHT22;3638;48.820;9.244;2023-04-10T00:50:40;5.70;99.90
7194;DHT22;3638;48.820;9.244;2023-04-10T00:53:07;5.60;99.90
7194;DHT22;3638;48.820;9.244;2023-04-10T00:55:34;5.60;99.90
7194;DHT22;3638;48.820;9.244;2023-04-10T00:58:02;5.60;99.90
7194;DHT22;3638;48.820;9.244;2023-04-10T01:00:29;5.60;99.90
7194;DHT22;3638;48.820;9.244;2023-04-10T01:02:56;5.70;99.90
7194;DHT22;3638;48.820;9.244;2023-04-10T01:05:26;5.80;99.90
7194;DHT22;3638;48.820;9.244;2023-04-10T01:08:16;5.80;99.90
7194;DHT22;3638;48.820;9.244;2023-04-10T01:10:52;5.80;99.90
7194;DHT22;3638;48.820;9.244;2023-04-10T01:13:27;5.80;99.90
7194;DHT22;3638;48.820;9.244;2023-04-10T01:16:03;5.80;99.90
7194;DHT22;3638;48.820;9.244;2023-04-10T01:18:37;5.60;99.90
7194;DHT22;3638;48.820;9.244;2023-04-10T01:21:10;5.50;99.90
7194;DHT22;3638;48.820;9.244;2023-04-10T01:23:53;5.50;99.90
7194;DHT22;3638;48.820;9.244;2023-04-10T01:26:47;5.40;99.90
7194;DHT22;3638;48.820;9.244;2023-04-10T01:29:22;5.30;99.90
7194;DHT22;3638;48.820;9.244;2023-04-10T01:32:00;5.30;99.90
7194;DHT22;3638;48.820;9.244;2023-04-10T01:34:31;5.20;99.90
7194;DHT22;3638;48.820;9.244;2023-04-10T01:37:03;5.10;99.90
7194;DHT22;3638;48.820;9.244;2023-04-10T01:39:34;5.10;99.90
7194;DHT22;3638;48.820;9.244;2023-04-10T01:42:04;5.00;99.90
7194;DHT22;3638;48.820;9.244;2023-04-10T01:44:33;5.00;99.90
7194;DHT22;3638;48.820;9.244;2023-04-10T01:47:03;4.90;99.90
7194;DHT22;3638;48.820;9.244;2023-04-10T01:49:33;5.00;99.90
7194;DHT22;3638;48.820;9.244;2023-04-10T01:52:02;4.90;99.90
7194;DHT22;3638;48.820;9.244;2023-04-10T01:54:30;4.70;99.90
7194;DHT22;3638;48.820;9.244;2023-04-10T01:56:58;4.70;99.90
7194;DHT22;3638;48.820;9.244;2023-04-10T01:59:26;4.70;99.90
7194;DHT22;3638;48.820;9.244;2023-04-10T02:01:57;4.80;99.90
7194;DHT22;3638;48.820;9.244;2023-04-10T02:04:24;4.80;99.90
7194;DHT22;3638;48.820;9.244;2023-04-10T02:07:01;4.70;99.90
7194;DHT22;3638;48.820;9.244;2023-04-10T02:09:36;4.70;99.90
7194;DHT22;3638;48.820;9.244;2023-04-10T02:12:12;4.50;99.90
7194;DHT22;3638;48.820;9.244;2023-04-10T02:14:46;4.50;99.90
7194;DHT22;3638;48.820;9.244;2023-04-10T02:17:19;4.60;99.90
7194;DHT22;3638;48.820;9.244;2023-04-10T02:19:50;4.50;99.90
7194;DHT22;3638;48.820;9.244;2023-04-10T02:22:19;4.50;99.90
7194;DHT22;3638;48.820;9.244;2023-04-10T02:24:46;4.50;99.90
7194;DHT22;3638;48.820;9.244;2023-04-10T02:27:14;4.40;99.90
7194;DHT22;3638;48.820;9.244;2023-04-10T02:29:41;4.40;99.90
7194;DHT22;3638;48.820;9.244;2023-04-10T02:32:08;4.40;99.90
7194;DHT22;3638;48.820;9.244;2023-04-10T02:34:36;4.40;99.90
7194;DHT22;3638;48.820;9.244;2023-04-10T02:37:03;4.40;99.90
7194;DHT22;3638;48.820;9.244;2023-04-10T02:39:30;4.40;99.90
7194;DHT22;3638;48.820;9.244;2023-04-10T02:41:57;4.40;99.90
7194;DHT22;3638;48.820;9.244;2023-04-10T02:44:24;4.30;99.90
7194;DHT22;3638;48.820;9.244;2023-04-10T02:46:51;4.30;99.90
7194;DHT22;3638;48.820;9.244;2023-04-10T02:49:18;4.30;99.90
7194;DHT22;3638;48.820;9.244;2023-04-10T02:51:46;4.40;99.90
7194;DHT22;3638;48.820;9.244;2023-04-10T02:54:13;4.40;99.90
7194;DHT22;3638;48.820;9.244;2023-04-10T02:56:40;4.50;99.90
7194;DHT22;3638;48.820;9.244;2023-04-10T02:59:07;4.40;99.90
7194;DHT22;3638;48.820;9.244;2023-04-10T03:01:33;4.30;99.90
7194;DHT22;3638;48.820;9.244;2023-04-10T03:04:01;4.20;99.90
7194;DHT22;3638;48.820;9.244;2023-04-10T03:06:28;4.10;99.90
7194;DHT22;3638;48.820;9.244;2023-04-10T03:08:56;4.20;99.90
7194;DHT22;3638;48.820;9.244;2023-04-10T03:11:23;4.10;99.90
7194;DHT22;3638;48.820;9.244;2023-04-10T03:13:50;4.10;99.90
7194;DHT22;3638;48.820;9.244;2023-04-10T03:16:17;4.10;99.90
7194;DHT22;3638;48.820;9.244;2023-04-10T03:18:45;4.10;99.90
7194;DHT22;3638;48.820;9.244;2023-04-10T03:21:12;4.10;99.90
7194;DHT22;3638;48.820;9.244;2023-04-10T03:23:38;4.10;99.90
7194;DHT22;3638;48.820;9.244;2023-04-10T03:26:07;4.20;99.90
7194;DHT22;3638;48.820;9.244;2023-04-10T03:28:34;4.20;99.90
7194;DHT22;3638;48.820;9.244;2023-04-10T03:31:01;4.20;99.90
7194;DHT22;3638;48.820;9.244;2023-04-10T03:33:28;4.10;99.90
7194;DHT22;3638;48.820;9.244;2023-04-10T03:35:55;3.90;99.90
7194;DHT22;3638;48.820;9.244;2023-04-10T03:38:22;3.90;99.90
7194;DHT22;3638;48.820;9.244;2023-04-10T03:40:49;3.80;99.90
7194;DHT22;3638;48.820;9.244;2023-04-10T03:43:17;3.80;99.90
7194;DHT22;3638;48.820;9.244;2023-04-10T03:45:44;6.20;99.90
7194;DHT22;3638;48.820;9.244;2023-04-10T03:48:11;3.50;99.90
7194;DHT22;3638;48.820;9.244;2023-04-10T03:50:38;3.50;99.90
7194;DHT22;3638;48.820;9.244;2023-04-10T03:53:05;3.50;99.90
7194;DHT22;3638;48.820;9.244;2023-04-10T03:55:32;3.60;99.90
7194;DHT22;3638;48.820;9.244;2023-04-10T03:57:59;3.70;99.90
7194;DHT22;3638;48.820;9.244;2023-04-10T04:00:27;3.70;99.90
7194;DHT22;3638;48.820;9.244;2023-04-10T04:02:54;3.80;99.90
7194;DHT22;3638;48.820;9.244;2023-04-10T04:05:21;3.70;99.90
7194;DHT22;3638;48.820;9.244;2023-04-10T04:07:47;3.70;99.90
7194;DHT22;3638;48.820;9.244;2023-04-10T04:10:14;3.80;99.90
7194;DHT22;3638;48.820;9.244;2023-04-10T04:12:41;3.80;99.90
7194;DHT22;3638;48.820;9.244;2023-04-10T04:15:09;3.80;99.90
7194;DHT22;3638;48.820;9.244;2023-04-10T04:17:37;3.90;99.90
7194;DHT22;3638;48.820;9.244;2023-04-10T04:20:06;3.90;99.90
7194;DHT22;3638;48.820;9.244;2023-04-10T04:22:33;3.90;99.90
7194;DHT22;3638;48.820;9.244;2023-04-10T04:25:00;4.00;99.90
7194;DHT22;3638;48.820;9.244;2023-04-10T04:27:27;3.80;99.90
7194;DHT22;3638;48.820;9.244;2023-04-10T04:29:54;3.70;99.90
7194;DHT22;3638;48.820;9.244;2023-04-10T04:32:21;3.60;99.90
7194;DHT22;3638;48.820;9.244;2023-04-10T04:34:49;3.60;99.90
7194;DHT22;3638;48.820;9.244;2023-04-10T04:37:16;3.60;99.90
7194;DHT22;3638;48.820;9.244;2023-04-10T04:39:42;3.80;99.90
7194;DHT22;3638;48.820;9.244;2023-04-10T04:42:09;3.70;99.90
7194;DHT22;3638;48.820;9.244;2023-04-10T04:44:36;3.70;99.90
7194;DHT22;3638;48.820;9.244;2023-04-10T04:47:03;3.70;99.90
7194;DHT22;3638;48.820;9.244;2023-04-10T04:49:30;3.70;99.90
7194;DHT22;3638;48.820;9.244;2023-04-10T04:51:58;3.70;99.90
7194;DHT22;3638;48.820;9.244;2023-04-10T04:54:25;3.70;99.90
7194;DHT22;3638;48.820;9.244;2023-04-10T04:56:51;3.80;99.90
7194;DHT22;3638;48.820;9.244;2023-04-10T04:59:18;3.80;99.90
7194;DHT22;3638;48.820;9.244;2023-04-10T05:01:45;4.00;99.90
7194;DHT22;3638;48.820;9.244;2023-04-10T05:04:12;4.00;99.90
7194;DHT22;3638;48.820;9.244;2023-04-10T05:06:39;4.20;99.90
7194;DHT22;3638;48.820;9.244;2023-04-10T05:09:07;4.20;99.90
7194;DHT22;3638;48.820;9.244;2023-04-10T05:11:34;4.10;99.90
7194;DHT22;3638;48.820;9.244;2023-04-10T05:14:01;4.10;99.90
7194;DHT22;3638;48.820;9.244;2023-04-10T05:16:28;4.20;99.90
7194;DHT22;3638;48.820;9.244;2023-04-10T05:18:54;4.20;99.90
7194;DHT22;3638;48.820;9.244;2023-04-10T05:21:21;4.30;99.90
7194;DHT22;3638;48.820;9.244;2023-04-10T05:23:48;4.50;99.90
7194;DHT22;3638;48.820;9.244;2023-04-10T05:26:16;4.90;99.90
7194;DHT22;3638;48.820;9.244;2023-04-10T05:28:43;4.90;99.90
7194;DHT22;3638;48.820;9.244;2023-04-10T05:31:10;5.10;99.90
7194;DHT22;3638;48.820;9.244;2023-04-10T05:33:37;5.20;99.90
7194;DHT22;3638;48.820;9.244;2023-04-10T05:36:04;5.40;99.90
7194;DHT22;3638;48.820;9.244;2023-04-10T05:38:31;5.40;99.90
7194;DHT22;3638;48.820;9.244;2023-04-10T05:40:58;5.50;99.90
7194;DHT22;3638;48.820;9.244;2023-04-10T05:43:26;6.00;99.90
7194;DHT22;3638;48.820;9.244;2023-04-10T05:45:53;6.10;99.90
7194;DHT22;3638;48.820;9.244;2023-04-10T05:48:20;6.40;99.90
7194;DHT22;3638;48.820;9.244;2023-04-10T05:50:50;6.80;99.90
7194;DHT22;3638;48.820;9.244;2023-04-10T05:53:18;6.80;99.90
7194;DHT22;3638;48.820;9.244;2023-04-10T05:55:48;7.00;99.90
7194;DHT22;3638;48.820;9.244;2023-04-10T05:58:16;7.30;99.90
7194;DHT22;3638;48.820;9.244;2023-04-10T06:00:44;7.40;99.90
7194;DHT22;3638;48.820;9.244;2023-04-10T06:03:11;7.70;99.90
7194;DHT22;3638;48.820;9.244;2023-04-10T06:05:38;9.00;99.90
7194;DHT22;3638;48.820;9.244;2023-04-10T06:08:06;8.10;99.90
7194;DHT22;3638;48.820;9.244;2023-04-10T06:10:32;8.60;99.90
7194;DHT22;3638;48.820;9.244;2023-04-10T06:12:59;8.70;99.90
7194;DHT22;3638;48.820;9.244;2023-04-10T06:15:26;8.70;99.90
7194;DHT22;3638;48.820;9.244;2023-04-10T06:17:54;8.90;99.90
7194;DHT22;3638;48.820;9.244;2023-04-10T06:20:22;8.90;99.90
7194;DHT22;3638;48.820;9.244;2023-04-10T06:22:50;9.00;99.90
7194;DHT22;3638;48.820;9.244;2023-04-10T06:25:17;9.30;99.90
7194;DHT22;3638;48.820;9.244;2023-04-10T06:27:44;9.30;99.90
7194;DHT22;3638;48.820;9.244;2023-04-10T06:30:11;9.10;99.90
7194;DHT22;3638;48.820;9.244;2023-04-10T06:32:38;9.10;99.90
7194;DHT22;3638;48.820;9.244;2023-04-10T06:35:07;9.10;99.90
7194;DHT22;3638;48.820;9.244;2023-04-10T06:37:34;9.10;99.90
7194;DHT22;3638;48.820;9.244;2023-04-10T06:40:04;9.50;99.90
7194;DHT22;3638;48.820;9.244;2023-04-10T06:42:32;9.50;99.90
7194;DHT22;3638;48.820;9.244;2023-04-10T06:44:59;9.70;99.90
7194;DHT22;3638;48.820;9.244;2023-04-10T06:47:26;9.80;99.90
7194;DHT22;3638;48.820;9.244;2023-04-10T06:49:53;10.00;99.90
7194;DHT22;3638;48.820;9.244;2023-04-10T06:52:21;10.20;99.90
7194;DHT22;3638;48.820;9.244;2023-04-10T06:54:48;10.20;99.90
7194;DHT22;3638;48.820;9.244;2023-04-10T06:57:15;10.70;99.90
7194;DHT22;3638;48.820;9.244;2023-04-10T06:59:43;10.80;99.90
7194;DHT22;3638;48.820;9.244;2023-04-10T07:04:37;10.80;99.90
7194;DHT22;3638;48.820;9.244;2023-04-10T07:07:04;11.00;99.90
7194;DHT22;3638;48.820;9.244;2023-04-10T07:09:35;11.00;99.90
7194;DHT22;3638;48.820;9.244;2023-04-10T07:12:02;11.30;99.90
7194;DHT22;3638;48.820;9.244;2023-04-10T07:14:32;11.80;99.90
7194;DHT22;3638;48.820;9.244;2023-04-10T07:17:00;12.20;99.70
7194;DHT22;3638;48.820;9.244;2023-04-10T07:19:27;12.20;99.90
7194;DHT22;3638;48.820;9.244;2023-04-10T07:21:54;12.10;99.90
7194;DHT22;3638;48.820;9.244;2023-04-10T07:24:21;12.10;99.90
7194;DHT22;3638;48.820;9.244;2023-04-10T07:26:49;12.40;99.90
7194;DHT22;3638;48.820;9.244;2023-04-10T07:31:43;12.80;99.40
7194;DHT22;3638;48.820;9.244;2023-04-10T07:34:11;13.10;98.90
7194;DHT22;3638;48.820;9.244;2023-04-10T07:36:38;13.30;97.70
7194;DHT22;3638;48.820;9.244;2023-04-10T07:39:05;13.20;96.90
7194;DHT22;3638;48.820;9.244;2023-04-10T07:41:32;13.10;97.10
7194;DHT22;3638;48.820;9.244;2023-04-10T07:44:01;12.90;97.40
7194;DHT22;3638;48.820;9.244;2023-04-10T07:46:27;13.50;97.30
7194;DHT22;3638;48.820;9.244;2023-04-10T07:48:54;13.50;97.50
7194;DHT22;3638;48.820;9.244;2023-04-10T07:51:21;14.10;95.00
7194;DHT22;3638;48.820;9.244;2023-04-10T07:53:49;14.10;95.00
7194;DHT22;3638;48.820;9.244;2023-04-10T07:56:16;14.50;93.80
7194;DHT22;3638;48.820;9.244;2023-04-10T07:58:43;14.90;93.30
7194;DHT22;3638;48.820;9.244;2023-04-10T08:01:11;15.00;93.40
7194;DHT22;3638;48.820;9.244;2023-04-10T08:03:39;14.90;92.50
7194;DHT22;3638;48.820;9.244;2023-04-10T08:06:07;14.90;92.50
7194;DHT22;3638;48.820;9.244;2023-04-10T08:08:35;15.20;92.30
7194;DHT22;3638;48.820;9.244;2023-04-10T08:11:05;15.20;92.50
7194;DHT22;3638;48.820;9.244;2023-04-10T08:13:33;15.40;91.40
7194;DHT22;3638;48.820;9.244;2023-04-10T08:16:00;15.50;91.20
7194;DHT22;3638;48.820;9.244;2023-04-10T08:18:28;15.40;89.40
7194;DHT22;3638;48.820;9.244;2023-04-10T08:20:55;15.40;90.00
7194;DHT22;3638;48.820;9.244;2023-04-10T08:23:22;15.80;90.40
7194;DHT22;3638;48.820;9.244;2023-04-10T08:25:49;15.80;90.50
7194;DHT22;3638;48.820;9.244;2023-04-10T08:28:16;15.70;88.80
7194;DHT22;3638;48.820;9.244;2023-04-10T08:30:43;15.70;88.30
7194;DHT22;3638;48.820;9.244;2023-04-10T08:33:10;15.70;88.90
7194;DHT22;3638;48.820;9.244;2023-04-10T08:35:38;15.80;88.90
7194;DHT22;3638;48.820;9.244;2023-04-10T08:38:05;15.80;87.40
7194;DHT22;3638;48.820;9.244;2023-04-10T08:40:36;16.00;84.80
7194;DHT22;3638;48.820;9.244;2023-04-10T08:43:03;16.00;83.30
7194;DHT22;3638;48.820;9.244;2023-04-10T08:45:30;16.10;85.30
7194;DHT22;3638;48.820;9.244;2023-04-10T08:47:58;16.40;81.80
7194;DHT22;3638;48.820;9.244;2023-04-10T08:50:30;16.60;81.60
7194;DHT22;3638;48.820;9.244;2023-04-10T08:53:13;17.00;79.00
7194;DHT22;3638;48.820;9.244;2023-04-10T08:55:41;17.20;77.10
7194;DHT22;3638;48.820;9.244;2023-04-10T08:58:10;17.20;75.00
7194;DHT22;3638;48.820;9.244;2023-04-10T09:00:38;17.10;74.70
7194;DHT22;3638;48.820;9.244;2023-04-10T09:03:07;17.10;75.70
7194;DHT22;3638;48.820;9.244;2023-04-10T09:05:36;17.10;73.30
7194;DHT22;3638;48.820;9.244;2023-04-10T09:08:06;17.10;71.90
7194;DHT22;3638;48.820;9.244;2023-04-10T09:10:33;17.10;71.70
7194;DHT22;3638;48.820;9.244;2023-04-10T09:13:00;17.30;70.80
7194;DHT22;3638;48.820;9.244;2023-04-10T09:15:27;17.20;71.90
7194;DHT22;3638;48.820;9.244;2023-04-10T09:17:56;17.30;69.60
7194;DHT22;3638;48.820;9.244;2023-04-10T09:20:25;17.30;68.70
7194;DHT22;3638;48.820;9.244;2023-04-10T09:22:54;17.20;69.10
7194;DHT22;3638;48.820;9.244;2023-04-10T09:25:35;17.30;68.40
7194;DHT22;3638;48.820;9.244;2023-04-10T09:28:04;17.40;68.90
7194;DHT22;3638;48.820;9.244;2023-04-10T09:30:34;17.30;69.00
7194;DHT22;3638;48.820;9.244;2023-04-10T09:33:02;17.50;70.90
7194;DHT22;3638;48.820;9.244;2023-04-10T09:35:36;17.50;66.50
7194;DHT22;3638;48.820;9.244;2023-04-10T09:38:13;17.40;70.10
7194;DHT22;3638;48.820;9.244;2023-04-10T09:40:43;17.70;69.50
7194;DHT22;3638;48.820;9.244;2023-04-10T09:43:18;17.70;65.50
7194;DHT22;3638;48.820;9.244;2023-04-10T09:45:48;17.60;65.50
7194;DHT22;3638;48.820;9.244;2023-04-10T09:48:16;17.70;65.20
7194;DHT22;3638;48.820;9.244;2023-04-10T09:50:43;17.70;66.20
7194;DHT22;3638;48.820;9.244;2023-04-10T09:53:11;17.80;65.40
7194;DHT22;3638;48.820;9.244;2023-04-10T09:55:41;17.80;65.00
7194;DHT22;3638;48.820;9.244;2023-04-10T09:58:09;17.70;63.50
7194;DHT22;3638;48.820;9.244;2023-04-10T10:00:41;17.60;64.60
7194;DHT22;3638;48.820;9.244;2023-04-10T10:03:11;17.80;66.60
7194;DHT22;3638;48.820;9.244;2023-04-10T10:05:40;17.80;63.40
7194;DHT22;3638;48.820;9.244;2023-04-10T10:08:09;17.70;64.10
7194;DHT22;3638;48.820;9.244;2023-04-10T10:10:39;17.90;65.80
7194;DHT22;3638;48.820;9.244;2023-04-10T10:13:14;17.90;63.50
7194;DHT22;3638;48.820;9.244;2023-04-10T10:15:46;17.90;61.50
7194;DHT22;3638;48.820;9.244;2023-04-10T10:18:21;17.70;60.70
7194;DHT22;3638;48.820;9.244;2023-04-10T10:20:53;17.60;63.20
7194;DHT22;3638;48.820;9.244;2023-04-10T10:23:21;17.50;63.00
7194;DHT22;3638;48.820;9.244;2023-04-10T10:25:49;17.60;63.70
7194;DHT22;3638;48.820;9.244;2023-04-10T10:28:19;17.80;61.00
7194;DHT22;3638;48.820;9.244;2023-04-10T10:33:14;17.90;59.70
7194;DHT22;3638;48.820;9.244;2023-04-10T10:35:42;17.80;61.10
7194;DHT22;3638;48.820;9.244;2023-04-10T10:38:09;17.90;60.30
7194;DHT22;3638;48.820;9.244;2023-04-10T10:40:40;18.00;60.80
7194;DHT22;3638;48.820;9.244;2023-04-10T10:43:13;18.00;59.50
7194;DHT22;3638;48.820;9.244;2023-04-10T10:45:51;18.10;59.10
7194;DHT22;3638;48.820;9.244;2023-04-10T10:48:21;18.20;58.10
7194;DHT22;3638;48.820;9.244;2023-04-10T10:50:54;18.20;58.60
7194;DHT22;3638;48.820;9.244;2023-04-10T10:53:34;18.20;58.40
7194;DHT22;3638;48.820;9.244;2023-04-10T10:56:34;18.30;57.70
7194;DHT22;3638;48.820;9.244;2023-04-10T10:59:01;18.30;58.70
7194;DHT22;3638;48.820;9.244;2023-04-10T11:01:30;18.20;57.80
7194;DHT22;3638;48.820;9.244;2023-04-10T11:03:57;18.20;57.50
7194;DHT22;3638;48.820;9.244;2023-04-10T11:06:48;18.20;57.80
7194;DHT22;3638;48.820;9.244;2023-04-10T11:09:50;18.30;57.40
7194;DHT22;3638;48.820;9.244;2023-04-10T11:12:20;18.30;56.40
7194;DHT22;3638;48.820;9.244;2023-04-10T11:14:58;18.20;57.90
7194;DHT22;3638;48.820;9.244;2023-04-10T11:17:49;18.20;56.90
7194;DHT22;3638;48.820;9.244;2023-04-10T11:20:19;18.20;56.90
7194;DHT22;3638;48.820;9.244;2023-04-10T11:23:08;18.30;56.30
7194;DHT22;3638;48.820;9.244;2023-04-10T11:25:46;18.30;57.70
7194;DHT22;3638;48.820;9.244;2023-04-10T11:28:34;18.30;56.80
7194;DHT22;3638;48.820;9.244;2023-04-10T11:31:15;18.40;56.30
7194;DHT22;3638;48.820;9.244;2023-04-10T11:33:46;18.40;54.70
7194;DHT22;3638;48.820;9.244;2023-04-10T11:36:14;18.20;55.50
7194;DHT22;3638;48.820;9.244;2023-04-10T11:38:56;18.30;55.10
7194;DHT22;3638;48.820;9.244;2023-04-10T11:41:27;18.30;55.00
7194;DHT22;3638;48.820;9.244;2023-04-10T11:43:55;18.40;54.50
7194;DHT22;3638;48.820;9.244;2023-04-10T11:46:23;18.30;52.70
7194;DHT22;3638;48.820;9.244;2023-04-10T11:48:53;18.30;54.30
7194;DHT22;3638;48.820;9.244;2023-04-10T11:51:21;18.10;54.20
7194;DHT22;3638;48.820;9.244;2023-04-10T11:53:48;17.90;53.10
7194;DHT22;3638;48.820;9.244;2023-04-10T11:56:16;18.00;55.00
7194;DHT22;3638;48.820;9.244;2023-04-10T11:58:48;18.10;53.80
7194;DHT22;3638;48.820;9.244;2023-04-10T12:01:20;18.10;53.20
7194;DHT22;3638;48.820;9.244;2023-04-10T12:03:47;18.20;52.50
7194;DHT22;3638;48.820;9.244;2023-04-10T12:06:15;18.30;51.30
7194;DHT22;3638;48.820;9.244;2023-04-10T12:08:46;18.40;49.30
7194;DHT22;3638;48.820;9.244;2023-04-10T12:11:17;18.40;49.10
7194;DHT22;3638;48.820;9.244;2023-04-10T12:13:46;18.30;48.20
7194;DHT22;3638;48.820;9.244;2023-04-10T12:16:13;18.40;48.30
7194;DHT22;3638;48.820;9.244;2023-04-10T12:18:41;18.60;48.50
7194;DHT22;3638;48.820;9.244;2023-04-10T12:21:10;18.60;48.60
7194;DHT22;3638;48.820;9.244;2023-04-10T12:23:38;18.60;47.70
7194;DHT22;3638;48.820;9.244;2023-04-10T12:26:09;18.50;47.50
7194;DHT22;3638;48.820;9.244;2023-04-10T12:28:39;18.70;47.20
7194;DHT22;3638;48.820;9.244;2023-04-10T12:31:07;18.90;45.70
7194;DHT22;3638;48.820;9.244;2023-04-10T12:33:35;18.90;45.80
7194;DHT22;3638;48.820;9.244;2023-04-10T12:36:01;19.00;45.60
7194;DHT22;3638;48.820;9.244;2023-04-10T12:38:41;19.00;45.60
7194;DHT22;3638;48.820;9.244;2023-04-10T12:41:10;18.90;45.20
7194;DHT22;3638;48.820;9.244;2023-04-10T12:43:38;18.80;44.40
7194;DHT22;3638;48.820;9.244;2023-04-10T12:46:07;19.00;45.90
7194;DHT22;3638;48.820;9.244;2023-04-10T12:48:35;19.00;45.20
7194;DHT22;3638;48.820;9.244;2023-04-10T12:51:02;19.20;45.50
7194;DHT22;3638;48.820;9.244;2023-04-10T12:53:29;19.30;43.30
7194;DHT22;3638;48.820;9.244;2023-04-10T12:56:03;19.00;44.50
7194;DHT22;3638;48.820;9.244;2023-04-10T12:58:31;19.00;44.10
7194;DHT22;3638;48.820;9.244;2023-04-10T13:01:01;18.90;44.70
7194;DHT22;3638;48.820;9.244;2023-04-10T13:03:29;19.00;46.70
7194;DHT22;3638;48.820;9.244;2023-04-10T13:08:24;19.50;45.90
7194;DHT22;3638;48.820;9.244;2023-04-10T13:10:51;19.60;44.90
7194;DHT22;3638;48.820;9.244;2023-04-10T13:13:20;19.70;45.60
7194;DHT22;3638;48.820;9.244;2023-04-10T13:15:47;19.60;45.70
7194;DHT22;3638;48.820;9.244;2023-04-10T13:18:14;19.60;45.40
7194;DHT22;3638;48.820;9.244;2023-04-10T13:20:41;19.70;46.10
7194;DHT22;3638;48.820;9.244;2023-04-10T13:23:08;19.70;45.40
7194;DHT22;3638;48.820;9.244;2023-04-10T13:25:37;19.80;45.10
7194;DHT22;3638;48.820;9.244;2023-04-10T13:28:05;19.90;44.80
7194;DHT22;3638;48.820;9.244;2023-04-10T13:30:38;19.90;46.00
7194;DHT22;3638;48.820;9.244;2023-04-10T13:33:06;20.00;45.80
7194;DHT22;3638;48.820;9.244;2023-04-10T13:35:34;20.00;45.70
7194;DHT22;3638;48.820;9.244;2023-04-10T13:38:00;19.90;46.40
7194;DHT22;3638;48.820;9.244;2023-04-10T13:42:55;20.20;44.80
7194;DHT22;3638;48.820;9.244;2023-04-10T13:45:22;20.00;44.60
7194;DHT22;3638;48.820;9.244;2023-04-10T13:47:50;20.00;44.80
7194;DHT22;3638;48.820;9.244;2023-04-10T13:50:17;20.10;44.60
7194;DHT22;3638;48.820;9.244;2023-04-10T13:52:44;19.90;44.80
7194;DHT22;3638;48.820;9.244;2023-04-10T13:57:38;19.80;45.50
7194;DHT22;3638;48.820;9.244;2023-04-10T14:00:06;19.80;45.10
7194;DHT22;3638;48.820;9.244;2023-04-10T14:02:34;19.70;45.40
7194;DHT22;3638;48.820;9.244;2023-04-10T14:05:03;19.80;46.10
7194;DHT22;3638;48.820;9.244;2023-04-10T14:07:31;20.00;45.80
7194;DHT22;3638;48.820;9.244;2023-04-10T14:09:58;19.90;45.20
7194;DHT22;3638;48.820;9.244;2023-04-10T14:12:25;20.10;45.70
7194;DHT22;3638;48.820;9.244;2023-04-10T14:14:52;20.30;45.30
7194;DHT22;3638;48.820;9.244;2023-04-10T14:17:19;20.20;45.30
7194;DHT22;3638;48.820;9.244;2023-04-10T14:22:17;20.10;45.40
7194;DHT22;3638;48.820;9.244;2023-04-10T14:24:44;20.10;45.70
7194;DHT22;3638;48.820;9.244;2023-04-10T14:27:11;20.10;45.30
7194;DHT22;3638;48.820;9.244;2023-04-10T14:29:38;20.30;45.00
7194;DHT22;3638;48.820;9.244;2023-04-10T14:32:05;20.10;45.20
7194;DHT22;3638;48.820;9.244;2023-04-10T14:34:32;20.20;45.30
7194;DHT22;3638;48.820;9.244;2023-04-10T14:36:59;20.20;45.10
7194;DHT22;3638;48.820;9.244;2023-04-10T14:39:28;20.50;45.50
7194;DHT22;3638;48.820;9.244;2023-04-10T14:41:55;20.50;44.90
7194;DHT22;3638;48.820;9.244;2023-04-10T14:44:22;20.50;45.50
7194;DHT22;3638;48.820;9.244;2023-04-10T14:46:49;20.30;45.00
7194;DHT22;3638;48.820;9.244;2023-04-10T14:49:16;20.20;45.90
7194;DHT22;3638;48.820;9.244;2023-04-10T14:51:43;20.30;45.30
7194;DHT22;3638;48.820;9.244;2023-04-10T14:54:10;20.10;46.30
7194;DHT22;3638;48.820;9.244;2023-04-10T14:56:38;20.10;45.60
7194;DHT22;3638;48.820;9.244;2023-04-10T15:01:33;19.80;45.80
7194;DHT22;3638;48.820;9.244;2023-04-10T15:06:27;19.80;47.30
7194;DHT22;3638;48.820;9.244;2023-04-10T15:08:56;19.80;47.60
7194;DHT22;3638;48.820;9.244;2023-04-10T15:11:23;19.70;46.20
7194;DHT22;3638;48.820;9.244;2023-04-10T15:13:52;19.70;47.50
7194;DHT22;3638;48.820;9.244;2023-04-10T15:16:18;19.70;47.50
7194;DHT22;3638;48.820;9.244;2023-04-10T15:18:46;19.60;46.60
7194;DHT22;3638;48.820;9.244;2023-04-10T15:21:13;19.60;46.50
7194;DHT22;3638;48.820;9.244;2023-04-10T15:23:40;19.60;47.10
7194;DHT22;3638;48.820;9.244;2023-04-10T15:26:10;19.50;47.70
7194;DHT22;3638;48.820;9.244;2023-04-10T15:28:38;19.40;46.80
7194;DHT22;3638;48.820;9.244;2023-04-10T15:31:06;19.20;47.70
7194;DHT22;3638;48.820;9.244;2023-04-10T15:33:33;19.20;47.30
7194;DHT22;3638;48.820;9.244;2023-04-10T15:36:02;19.00;48.40
7194;DHT22;3638;48.820;9.244;2023-04-10T15:38:32;19.10;48.10
7194;DHT22;3638;48.820;9.244;2023-04-10T15:40:59;19.10;48.40
7194;DHT22;3638;48.820;9.244;2023-04-10T15:43:26;19.10;48.00
7194;DHT22;3638;48.820;9.244;2023-04-10T15:48:22;19.00;48.00
7194;DHT22;3638;48.820;9.244;2023-04-10T15:50:49;18.90;48.70
7194;DHT22;3638;48.820;9.244;2023-04-10T15:53:15;18.80;49.30
7194;DHT22;3638;48.820;9.244;2023-04-10T15:55:42;18.90;49.30
7194;DHT22;3638;48.820;9.244;2023-04-10T15:58:09;18.80;49.50
7194;DHT22;3638;48.820;9.244;2023-04-10T16:00:36;18.80;50.00
7194;DHT22;3638;48.820;9.244;2023-04-10T16:03:04;18.80;50.20
7194;DHT22;3638;48.820;9.244;2023-04-10T16:05:33;18.80;50.60
7194;DHT22;3638;48.820;9.244;2023-04-10T16:08:01;18.80;50.50
7194;DHT22;3638;48.820;9.244;2023-04-10T16:12:55;18.60;51.10
7194;DHT22;3638;48.820;9.244;2023-04-10T16:15:28;18.70;51.80
7194;DHT22;3638;48.820;9.244;2023-04-10T16:17:56;18.60;51.40
7194;DHT22;3638;48.820;9.244;2023-04-10T16:20:23;18.60;51.50
7194;DHT22;3638;48.820;9.244;2023-04-10T16:22:51;18.50;52.00
7194;DHT22;3638;48.820;9.244;2023-04-10T16:25:19;18.50;52.20
7194;DHT22;3638;48.820;9.244;2023-04-10T16:30:13;18.40;53.10
7194;DHT22;3638;48.820;9.244;2023-04-10T16:32:41;18.40;53.20
7194;DHT22;3638;48.820;9.244;2023-04-10T16:35:08;18.40;53.70
7194;DHT22;3638;48.820;9.244;2023-04-10T16:37:35;18.30;53.40
7194;DHT22;3638;48.820;9.244;2023-04-10T16:40:04;18.30;53.40
7194;DHT22;3638;48.820;9.244;2023-04-10T16:42:32;18.30;53.80
7194;DHT22;3638;48.820;9.244;2023-04-10T16:44:59;18.20;53.80
7194;DHT22;3638;48.820;9.244;2023-04-10T16:47:27;18.20;54.20
7194;DHT22;3638;48.820;9.244;2023-04-10T16:49:54;18.20;54.10